createdAt,value
2022-11-24T00:00:05.128Z,9.1
2022-11-24T00:05:43.329Z,8.93
2022-11-24T00:11:15.042Z,8.93
2022-11-24T00:16:47.503Z,9.12
2022-11-24T00:22:18.630Z,8.98
2022-11-24T00:27:50.203Z,8.99
2022-11-24T00:33:21.894Z,8.95
2022-11-24T00:38:53.606Z,9.16
2022-11-24T00:44:25.550Z,9.01
2022-11-24T00:49:57.211Z,9.15
2022-11-24T00:55:29.551Z,9.03
2022-11-24T01:01:00.526Z,9.01
2022-11-24T01:06:39.232Z,9.2
2022-11-24T01:12:10.263Z,9.28
2022-11-24T01:17:42.303Z,8.96
2022-11-24T01:23:14.016Z,8.83
2022-11-24T01:28:47.291Z,8.92
2022-11-24T01:34:17.182Z,8.85
2022-11-24T01:39:48.909Z,8.77
2022-11-24T01:45:20.822Z,8.9
2022-11-24T01:50:52.343Z,8.99
2022-11-24T01:56:24.079Z,8.9
2022-11-24T02:01:56.056Z,8.97
2022-11-24T02:07:34.155Z,9.13
2022-11-24T02:13:05.597Z,9.01
2022-11-24T02:18:37.333Z,9.18
2022-11-24T02:24:09.085Z,9.17
2022-11-24T02:29:41.193Z,9.06
2022-11-24T02:35:12.646Z,9.17
2022-11-24T02:40:44.665Z,9.2
2022-11-24T02:46:16.015Z,9.25
2022-11-24T02:51:47.681Z,9.27
2022-11-24T02:57:19.369Z,9.24
2022-11-24T03:02:51.228Z,9.18
2022-11-24T03:08:27.396Z,9.0
2022-11-24T03:13:58.940Z,8.94
2022-11-24T03:19:30.942Z,8.75
2022-11-24T03:25:02.497Z,8.84
2022-11-24T03:30:34.322Z,8.78
2022-11-24T03:36:05.819Z,8.77
2022-11-24T03:41:37.550Z,8.73
2022-11-24T03:47:09.222Z,8.94
2022-11-24T03:52:41.034Z,8.89
2022-11-24T03:58:12.903Z,9.07
2022-11-24T04:03:44.444Z,8.98
2022-11-24T04:09:20.532Z,8.91
2022-11-24T04:14:52.462Z,8.92
2022-11-24T04:20:23.997Z,8.83
2022-11-24T04:25:55.870Z,9.0
2022-11-24T04:31:27.707Z,8.98
2022-11-24T04:36:59.354Z,9.05
2022-11-24T04:42:31.311Z,8.93
2022-11-24T04:48:02.621Z,8.98
2022-11-24T04:53:34.503Z,8.98
2022-11-24T04:59:08.336Z,8.79
2022-11-24T05:04:38.047Z,8.95
2022-11-24T05:10:13.881Z,8.89
2022-11-24T05:15:45.641Z,8.87
2022-11-24T05:21:17.307Z,9.2
2022-11-24T05:26:49.003Z,8.82
2022-11-24T05:32:21.004Z,8.9
2022-11-24T05:37:53.115Z,8.88
2022-11-24T05:43:24.508Z,8.79
2022-11-24T05:48:56.175Z,8.73
2022-11-24T05:54:27.909Z,9.09
2022-11-24T05:59:59.599Z,8.97
2022-11-24T06:05:31.054Z,9.08
2022-11-24T06:11:07.154Z,8.99
2022-11-24T06:16:39.792Z,9.01
2022-11-24T06:22:10.594Z,8.99
2022-11-24T06:33:14.066Z,9.06
2022-11-24T06:38:45.844Z,9.25
2022-11-24T06:44:17.531Z,9.21
2022-11-24T06:49:49.454Z,9.21
2022-11-24T06:55:21.797Z,9.1
2022-11-24T07:00:53.323Z,9.03
2022-11-24T07:06:25.307Z,9.1
2022-11-24T07:12:01.718Z,9.13
2022-11-24T07:17:33.034Z,8.99
2022-11-24T07:23:04.626Z,8.94
2022-11-24T07:28:37.001Z,8.96
2022-11-24T07:34:08.238Z,8.94
2022-11-24T07:39:39.798Z,8.88
2022-11-24T07:45:11.522Z,9.07
2022-11-24T07:50:43.350Z,8.82
2022-11-24T07:56:15.366Z,8.84
2022-11-24T08:01:47.011Z,8.9
2022-11-24T08:07:19.193Z,8.93
2022-11-24T08:12:55.011Z,8.79
2022-11-24T08:18:27.454Z,8.76
2022-11-24T08:24:00.142Z,8.73
2022-11-24T08:29:31.637Z,8.77
2022-11-24T08:35:13.685Z,8.76
2022-11-24T08:40:35.315Z,8.9
2022-11-24T08:46:07.024Z,8.8
2022-11-24T08:51:38.459Z,8.85
2022-11-24T08:57:10.156Z,8.97
2022-11-24T09:02:41.918Z,8.65
2022-11-24T09:08:13.846Z,8.74
2022-11-24T09:13:49.741Z,8.73
2022-11-24T09:19:21.881Z,8.78
2022-11-24T09:24:53.174Z,8.65
2022-11-24T09:30:25.995Z,8.78
2022-11-24T09:35:56.630Z,8.81
2022-11-24T09:41:28.366Z,8.79
2022-11-24T09:47:00.281Z,8.88
2022-11-24T09:52:32.379Z,8.79
2022-11-24T09:58:03.566Z,8.92
2022-11-24T10:03:35.526Z,9.12
2022-11-24T10:09:06.982Z,9.49
2022-11-24T10:14:43.090Z,9.41
2022-11-24T10:20:15.219Z,9.37
2022-11-24T10:25:46.612Z,9.47
2022-11-24T10:31:18.504Z,9.58
2022-11-24T10:36:50.431Z,9.83
2022-11-24T10:42:21.928Z,9.91
2022-11-24T10:47:53.671Z,10.14
2022-11-24T10:53:25.391Z,10.17
2022-11-24T10:58:57.430Z,10.21
2022-11-24T11:04:28.633Z,10.44
2022-11-24T11:10:00.288Z,10.23
2022-11-24T11:15:36.649Z,10.3
2022-11-24T11:21:08.367Z,10.3
2022-11-24T11:26:39.871Z,10.5
2022-11-24T11:37:43.307Z,10.39
2022-11-24T11:43:15.022Z,10.52
2022-11-24T11:48:47.106Z,10.73
2022-11-24T11:54:18.464Z,11.07
2022-11-24T11:59:50.206Z,10.77
2022-11-24T12:05:22.179Z,10.63
2022-11-24T12:10:53.853Z,10.57
2022-11-24T12:16:31.925Z,10.51
2022-11-24T12:22:03.807Z,10.64
2022-11-24T12:27:37.138Z,10.62
2022-11-24T12:33:06.965Z,10.55
2022-11-24T12:38:39.190Z,10.49
2022-11-24T12:44:10.435Z,10.52
2022-11-24T12:49:42.358Z,10.65
2022-11-24T12:55:13.867Z,10.8
2022-11-24T13:00:45.816Z,10.85
2022-11-24T13:06:17.605Z,11.35
2022-11-24T13:11:49.010Z,11.76
2022-11-24T13:17:30.178Z,11.81
2022-11-24T13:22:56.846Z,11.49
2022-11-24T13:34:00.467Z,11.21
2022-11-24T13:39:34.809Z,10.97
2022-11-24T13:45:03.734Z,11.18
2022-11-24T13:50:36.019Z,11.24
2022-11-24T13:56:07.487Z,11.17
2022-11-24T14:01:39.093Z,11.35
2022-11-24T14:07:10.654Z,11.46
2022-11-24T14:12:42.351Z,11.09
2022-11-24T14:18:20.462Z,11.23
2022-11-24T14:23:52.950Z,11.31
2022-11-24T14:29:24.023Z,11.31
2022-11-24T14:34:55.735Z,11.05
2022-11-24T14:40:28.042Z,10.99
2022-11-24T14:45:59.489Z,11.02
2022-11-24T14:51:31.198Z,11.06
2022-11-24T14:57:02.838Z,11.07
2022-11-24T15:02:34.364Z,11.23
2022-11-24T15:08:06.066Z,11.31
2022-11-24T15:13:37.782Z,11.25
2022-11-24T15:19:14.284Z,11.05
2022-11-24T15:24:45.686Z,11.08
2022-11-24T15:30:17.306Z,11.43
2022-11-24T15:35:49.290Z,11.31
2022-11-24T15:41:20.752Z,11.17
2022-11-24T15:46:52.617Z,10.97
2022-11-24T15:52:25.014Z,10.94
2022-11-24T15:57:56.058Z,10.64
2022-11-24T16:03:46.106Z,10.52
2022-11-24T16:08:59.431Z,10.54
2022-11-24T16:14:31.179Z,10.48
2022-11-24T16:20:07.625Z,10.26
2022-11-24T16:25:38.965Z,10.24
2022-11-24T16:31:11.814Z,10.14
2022-11-24T16:36:43.451Z,9.94
2022-11-24T16:42:14.895Z,9.91
2022-11-24T16:47:46.640Z,9.88
2022-11-24T16:53:18.559Z,9.78
2022-11-24T16:58:50.336Z,9.53
2022-11-24T17:04:22.140Z,9.56
2022-11-24T17:09:53.528Z,9.48
2022-11-24T17:15:32.918Z,9.49
2022-11-24T17:21:06.136Z,9.43
2022-11-24T17:26:33.188Z,9.38
2022-11-24T17:32:04.872Z,9.3
2022-11-24T17:37:36.799Z,9.24
2022-11-24T17:43:08.471Z,9.27
2022-11-24T17:48:40.178Z,9.21
2022-11-24T17:59:44.594Z,8.97
2022-11-24T18:05:16.071Z,9.0
2022-11-24T18:10:47.966Z,9.02
2022-11-24T18:16:19.562Z,8.9
2022-11-24T18:21:55.624Z,8.91
2022-11-24T18:27:27.575Z,8.96
2022-11-24T18:32:59.258Z,8.95
2022-11-24T18:38:31.019Z,9.01
2022-11-24T18:44:02.572Z,8.95
2022-11-24T18:49:34.224Z,8.94
2022-11-24T18:55:06.234Z,8.91
2022-11-24T19:00:37.928Z,8.81
2022-11-24T19:06:09.625Z,8.7
2022-11-24T19:11:42.062Z,8.79
2022-11-24T19:17:13.148Z,8.84
2022-11-24T19:22:48.936Z,8.83
2022-11-24T19:28:20.623Z,8.78
2022-11-24T19:33:52.631Z,8.73
2022-11-24T19:39:24.288Z,8.48
2022-11-24T19:44:56.598Z,8.55
2022-11-24T19:50:28.200Z,8.71
2022-11-24T19:55:59.669Z,8.77
2022-11-24T20:01:31.398Z,8.73
2022-11-24T20:07:03.838Z,8.66
2022-11-24T20:12:34.735Z,8.6
2022-11-24T20:18:06.725Z,8.57
2022-11-24T20:23:47.460Z,8.52
2022-11-24T20:29:20.454Z,8.61
2022-11-24T20:34:52.196Z,8.56
2022-11-24T20:40:23.600Z,8.63
2022-11-24T20:45:56.286Z,8.61
2022-11-24T20:51:30.101Z,8.59
2022-11-24T20:57:02.010Z,8.54
2022-11-24T21:02:33.475Z,8.34
2022-11-24T21:08:05.197Z,8.22
2022-11-24T21:13:36.982Z,8.27
2022-11-24T21:19:08.953Z,8.33
2022-11-24T21:24:44.954Z,8.17
2022-11-24T21:30:16.755Z,8.18
2022-11-24T21:35:48.498Z,8.17
2022-11-24T21:41:19.946Z,7.99
2022-11-24T21:46:55.835Z,8.05
2022-11-24T21:52:24.178Z,8.06
2022-11-24T21:57:55.120Z,7.88
2022-11-24T22:03:26.781Z,7.71
2022-11-24T22:08:58.962Z,7.74
2022-11-24T22:14:30.537Z,7.73
2022-11-24T22:20:02.053Z,7.7
2022-11-24T22:25:38.398Z,7.67
2022-11-24T22:31:09.886Z,7.59
2022-11-24T22:36:41.583Z,7.49
2022-11-24T22:42:13.306Z,7.39
2022-11-24T22:47:45.003Z,7.29
2022-11-24T22:53:16.855Z,7.28
2022-11-24T22:58:48.866Z,7.26
2022-11-24T23:04:20.231Z,7.23
2022-11-24T23:09:51.889Z,7.23
2022-11-24T23:15:23.910Z,7.22
2022-11-24T23:20:55.362Z,7.19
2022-11-24T23:26:31.409Z,7.12
2022-11-24T23:32:03.476Z,7.11
2022-11-24T23:37:52.583Z,7.05
2022-11-24T23:43:06.588Z,7.04
2022-11-24T23:48:38.903Z,6.94
2022-11-24T23:54:10.045Z,6.96
2022-11-24T23:59:41.769Z,6.85
